Time;durP1;ratioP1;P1;durP2;ratioP2;P2;SDS_P1;SDS_P2;PMS_P1;PMS_P2;Temp;Humidity;BMP_temperature;BMP_pressure;BME280_temperature;BME280_humidity;BME280_pressure;Samples;Min_cycle;Max_cycle;Signal;HPM_P1;HPM_P2
2022/04/26 03:37:31;;;;;;;38.83;26.53;;;;;;;12.19;76.45;100193.41;5086433;28;20210;-67
2022/04/26 03:39:59;;;;;;;41.90;28.37;;;;;;;12.21;76.86;100194.09;5085943;28;20209;-67
2022/04/26 03:42:26;;;;;;;43.23;28.03;;;;;;;12.22;77.46;100193.09;5083381;28;20316;-68
2022/04/26 03:44:54;;;;;;;39.63;26.40;;;;;;;12.26;76.85;100194.41;5082019;28;20237;-68
2022/04/26 03:47:22;;;;;;;41.90;28.10;;;;;;;12.28;77.01;100189.78;5084681;28;20676;-68
2022/04/26 03:49:51;;;;;;;45.70;28.87;;;;;;;12.31;76.99;100189.41;5082825;28;20214;-67
2022/04/26 03:52:20;;;;;;;42.13;28.43;;;;;;;12.36;75.44;100189.78;5083753;28;20217;-67
2022/04/26 03:54:48;;;;;;;40.77;27.40;;;;;;;12.41;75.31;100197.22;5083071;28;20233;-68
2022/04/26 03:57:16;;;;;;;41.20;27.33;;;;;;;12.39;74.85;100202.75;5085944;28;20198;-67
2022/04/26 03:59:43;;;;;;;44.37;28.73;;;;;;;12.38;75.29;100205.56;5090351;28;20574;-67
2022/04/26 04:02:11;;;;;;;38.20;26.50;;;;;;;12.37;75.37;100212.72;5081983;28;20325;-67
2022/04/26 04:04:39;;;;;;;41.53;26.93;;;;;;;12.41;74.63;100218.50;5086183;28;20207;-67
2022/04/26 04:07:08;;;;;;;39.73;27.97;;;;;;;12.43;74.61;100214.69;5083230;28;20213;-67
2022/04/26 04:09:36;;;;;;;40.70;27.07;;;;;;;12.43;74.73;100211.19;5084085;28;20214;-68
2022/04/26 04:12:04;;;;;;;39.20;26.73;;;;;;;12.42;74.62;100212.19;5086089;28;20639;-67
2022/04/26 04:14:32;;;;;;;38.83;27.43;;;;;;;12.43;74.63;100219.19;5080551;28;20312;-67
2022/04/26 04:17:00;;;;;;;36.00;25.87;;;;;;;12.41;74.39;100219.34;5082864;28;20286;-68
2022/04/26 04:19:29;;;;;;;38.90;25.37;;;;;;;12.42;74.61;100222.84;5081662;28;20295;-67
2022/04/26 04:21:57;;;;;;;35.30;25.27;;;;;;;12.38;74.62;100235.66;5082551;28;20207;-67
2022/04/26 04:24:26;;;;;;;35.83;24.87;;;;;;;12.39;74.79;100232.00;5080330;28;20565;-69
2022/04/26 04:26:55;;;;;;;38.67;26.27;;;;;;;12.41;74.67;100237.13;5083234;28;20290;-67
2022/04/26 04:29:23;;;;;;;38.57;26.03;;;;;;;12.40;74.39;100236.28;5083930;28;20219;-67
2022/04/26 04:31:50;;;;;;;38.13;27.17;;;;;;;12.39;74.30;100239.97;5083243;28;20671;-68
2022/04/26 04:34:18;;;;;;;39.30;27.57;;;;;;;12.37;74.33;100236.63;5084881;28;20863;-67
2022/04/26 04:36:46;;;;;;;36.03;26.13;;;;;;;12.37;74.17;100239.28;5085837;28;20608;-67
2022/04/26 04:39:19;;;;;;;38.10;26.10;;;;;;;12.33;74.45;100237.94;5084986;28;20222;-68
2022/04/26 04:41:48;;;;;;;38.77;27.10;;;;;;;12.35;74.53;100235.97;5083423;28;20649;-68
2022/04/26 04:44:17;;;;;;;36.20;26.37;;;;;;;12.38;74.34;100237.47;5080295;28;20322;-67
2022/04/26 04:46:45;;;;;;;36.50;25.77;;;;;;;12.40;74.05;100241.59;5080799;28;20587;-67
2022/04/26 04:49:13;;;;;;;36.57;25.80;;;;;;;12.42;73.92;100242.28;5080236;28;20565;-67
2022/04/26 04:51:40;;;;;;;35.87;26.03;;;;;;;12.43;74.03;100246.59;5079912;28;20228;-66
2022/04/26 04:54:08;;;;;;;35.47;25.40;;;;;;;12.41;74.08;100248.59;5085126;28;20539;-67
2022/04/26 04:56:36;;;;;;;33.90;24.20;;;;;;;12.43;74.09;100249.25;5083470;28;20239;-68
2022/04/26 04:59:05;;;;;;;35.60;24.17;;;;;;;12.43;73.65;100254.59;5079686;28;20321;-67
2022/04/26 05:01:32;;;;;;;35.23;24.40;;;;;;;12.44;74.06;100258.91;5080601;28;20327;-67
2022/04/26 05:04:00;;;;;;;34.87;25.10;;;;;;;12.47;74.53;100254.25;5080833;28;20254;-67
2022/04/26 05:06:28;;;;;;;34.30;25.00;;;;;;;12.46;74.21;100258.75;5083543;28;20203;-67
2022/04/26 05:08:56;;;;;;;38.77;26.47;;;;;;;12.34;76.08;100252.91;5083749;28;20337;-68
2022/04/26 05:11:24;;;;;;;39.20;26.17;;;;;;;12.19;78.15;100248.41;5084518;28;20207;-68
2022/04/26 05:13:55;;;;;;;37.73;25.17;;;;;;;12.16;78.31;100251.38;5078629;28;20583;-68
2022/04/26 05:16:24;;;;;;;33.43;23.53;;;;;;;12.21;78.72;100262.38;5083405;28;20667;-68
2022/04/26 05:18:51;;;;;;;37.80;25.77;;;;;;;12.26;79.19;100260.03;5083051;28;20256;-67
2022/04/26 05:21:19;;;;;;;35.80;25.17;;;;;;;12.29;78.75;100265.88;5078746;28;20209;-67
2022/04/26 05:26:32;;;;;;;35.43;24.10;;;;;;;12.36;78.12;100258.91;5077932;28;20212;-67
2022/04/26 05:29:01;;;;;;;33.93;24.37;;;;;;;12.39;78.20;100261.25;5082292;28;20635;-68
2022/04/26 05:31:30;;;;;;;32.13;22.03;;;;;;;12.42;78.26;100263.56;5082747;28;20222;-67
2022/04/26 05:33:57;;;;;;;30.87;22.83;;;;;;;12.40;77.91;100262.88;5084863;28;20627;-67
2022/04/26 05:36:32;;;;;;;29.87;21.27;;;;;;;12.37;77.87;100273.88;5084707;28;20202;-68
2022/04/26 05:39:01;;;;;;;33.17;21.77;;;;;;;12.34;77.71;100271.53;5083773;28;20283;-67
2022/04/26 05:41:29;;;;;;;32.63;21.83;;;;;;;12.37;77.72;100270.38;5081112;28;20215;-67
2022/04/26 05:43:56;;;;;;;30.87;21.70;;;;;;;12.35;77.98;100267.88;5080097;28;20252;-67
2022/04/26 05:46:24;;;;;;;29.33;21.53;;;;;;;12.35;77.56;100270.53;5084653;28;20207;-67
2022/04/26 05:48:53;;;;;;;34.30;24.65;;;;;;;12.35;77.52;100262.56;5087094;28;20476;-73
2022/04/26 05:51:22;;;;;;;27.83;21.23;;;;;;;12.22;78.61;100275.50;5082952;28;20232;-72
2022/04/26 05:53:50;;;;;;;31.83;22.90;;;;;;;12.21;78.79;100273.84;5085035;28;20245;-72
2022/04/26 05:56:18;;;;;;;28.90;20.47;;;;;;;12.25;78.69;100269.84;5084005;28;20325;-72
2022/04/26 05:58:45;;;;;;;28.23;19.70;;;;;;;12.28;78.05;100272.19;5081529;28;20650;-68
2022/04/26 06:01:13;;;;;;;28.03;19.53;;;;;;;12.29;77.70;100273.03;5080796;28;20203;-68
2022/04/26 06:03:41;;;;;;;28.03;18.40;;;;;;;12.26;77.85;100274.16;5083304;28;20765;-68
2022/04/26 06:06:10;;;;;;;26.73;19.77;;;;;;;12.20;78.97;100272.19;5080909;28;20260;-68
2022/04/26 06:08:38;;;;;;;27.83;19.77;;;;;;;12.11;80.71;100269.66;5081392;28;20207;-73
2022/04/26 06:11:06;;;;;;;28.30;20.33;;;;;;;12.13;80.44;100278.31;5082820;28;20195;-70
2022/04/26 06:13:34;;;;;;;25.90;17.83;;;;;;;12.14;80.68;100275.47;5081833;28;20240;-71
2022/04/26 06:16:02;;;;;;;27.40;19.17;;;;;;;12.18;80.91;100274.16;5083242;28;20588;-68
2022/04/26 06:18:30;;;;;;;23.03;18.13;;;;;;;12.24;80.94;100278.81;5086284;28;20249;-68
2022/04/26 06:20:57;;;;;;;25.80;17.70;;;;;;;12.33;79.43;100287.63;5088568;28;20209;-68
2022/04/26 06:23:26;;;;;;;25.53;17.23;;;;;;;12.43;79.12;100286.50;5088414;28;20225;-69
2022/04/26 06:25:54;;;;;;;24.17;17.27;;;;;;;12.53;78.37;100291.66;5090836;28;20674;-68
2022/04/26 06:28:22;;;;;;;25.93;16.83;;;;;;;12.59;78.48;100292.81;5090552;28;20226;-68
2022/04/26 06:30:50;;;;;;;21.47;16.23;;;;;;;12.61;78.99;100289.00;5088929;28;20209;-68
2022/04/26 06:33:18;;;;;;;21.57;16.23;;;;;;;12.64;78.43;100293.16;5091542;28;20233;-70
2022/04/26 06:35:51;;;;;;;22.00;16.70;;;;;;;12.65;77.31;100305.47;5089519;28;20215;-71
2022/04/26 06:38:22;;;;;;;22.63;16.47;;;;;;;12.65;77.90;100300.16;5088061;28;20587;-72
2022/04/26 06:40:51;;;;;;;20.60;15.17;;;;;;;12.71;77.53;100310.13;5088796;28;20195;-72
2022/04/26 06:43:20;;;;;;;19.17;14.63;;;;;;;12.76;77.02;100302.47;5090734;28;20280;-72
2022/04/26 06:45:48;;;;;;;19.80;14.73;;;;;;;12.82;77.22;100307.97;5090767;28;20234;-72
2022/04/26 06:48:17;;;;;;;20.20;15.23;;;;;;;12.84;76.85;100301.66;5086095;28;20290;-72
2022/04/26 06:50:46;;;;;;;18.33;14.10;;;;;;;12.83;76.80;100298.16;5085946;28;20219;-69
2022/04/26 06:53:14;;;;;;;19.50;14.67;;;;;;;12.90;76.63;100304.47;5091130;28;20206;-71
2022/04/26 06:55:41;;;;;;;18.33;13.80;;;;;;;12.96;76.52;100301.13;5090730;28;20248;-71
2022/04/26 06:58:10;;;;;;;17.73;13.37;;;;;;;13.05;76.05;100297.47;5091375;28;20270;-72
2022/04/26 07:00:38;;;;;;;19.43;13.27;;;;;;;13.12;76.31;100295.78;5085671;28;20297;-67
2022/04/26 07:03:06;;;;;;;18.47;13.03;;;;;;;13.22;75.96;100292.16;5090059;28;20206;-67
2022/04/26 07:05:34;;;;;;;15.37;12.80;;;;;;;13.35;75.75;100300.47;5089252;28;20221;-68
2022/04/26 07:08:02;;;;;;;16.87;13.17;;;;;;;13.49;75.62;100300.56;5088687;28;20523;-68
2022/04/26 07:10:29;;;;;;;16.03;12.27;;;;;;;13.56;73.73;100301.56;5090817;28;20268;-68
2022/04/26 07:12:57;;;;;;;14.60;11.43;;;;;;;13.57;72.75;100307.72;5091027;28;20238;-69
2022/04/26 07:15:27;;;;;;;14.83;11.10;;;;;;;13.64;72.47;100303.34;5089955;28;20210;-70
2022/04/26 07:17:54;;;;;;;14.20;10.80;;;;;;;13.68;72.51;100303.84;5091176;28;20647;-68
2022/04/26 07:20:24;;;;;;;13.13;10.27;;;;;;;13.69;71.77;100306.34;5091292;28;20269;-69
2022/04/26 07:22:53;;;;;;;13.40;10.07;;;;;;;13.72;72.49;100305.97;5089105;28;20265;-68
2022/04/26 07:25:24;;;;;;;12.03;9.10;;;;;;;13.73;72.56;100304.97;5085931;28;20231;-69
2022/04/26 07:27:51;;;;;;;10.70;8.40;;;;;;;13.71;71.50;100304.34;5091606;28;20300;-68
2022/04/26 07:30:20;;;;;;;11.87;7.47;;;;;;;13.77;71.31;100318.81;5086706;28;20265;-68
2022/04/26 07:35:37;;;;;;;11.97;7.17;;;;;;;13.83;70.53;100310.13;5087578;28;20203;-68
2022/04/26 07:38:06;;;;;;;9.23;7.00;;;;;;;13.88;70.36;100316.59;5088664;28;20290;-67
2022/04/26 07:40:34;;;;;;;9.30;7.60;;;;;;;13.87;69.83;100314.94;5084770;28;20429;-68
2022/04/26 07:43:02;;;;;;;11.83;7.73;;;;;;;13.84;70.04;100320.59;5088202;28;20209;-68
2022/04/26 07:45:38;;;;;;;8.63;6.70;;;;;;;13.85;69.10;100322.28;5090589;28;20610;-68
2022/04/26 07:48:08;;;;;;;8.07;6.93;;;;;;;13.80;69.39;100324.63;5087972;28;20303;-68
2022/04/26 07:50:37;;;;;;;8.80;5.00;;;;;;;13.74;69.92;100327.13;5086938;28;20201;-68
2022/04/26 07:53:05;;;;;;;7.33;5.10;;;;;;;13.69;70.29;100334.81;5086619;28;20509;-68
2022/04/26 07:55:34;;;;;;;8.00;5.97;;;;;;;13.63;70.09;100327.53;5085838;28;20715;-67
2022/04/26 07:58:06;;;;;;;9.33;5.87;;;;;;;13.60;70.75;100328.69;5085426;28;20570;-67
2022/04/26 08:00:37;;;;;;;6.00;4.57;;;;;;;13.55;70.54;100333.69;5086253;28;20215;-68
2022/04/26 08:03:06;;;;;;;7.97;5.80;;;;;;;13.52;70.78;100334.88;5086518;28;20196;-68
2022/04/26 08:05:35;;;;;;;9.47;6.80;;;;;;;13.57;70.74;100342.34;5085425;28;20232;-69
2022/04/26 08:08:03;;;;;;;8.77;6.60;;;;;;;13.62;69.65;100337.34;5087971;28;20631;-69
2022/04/26 08:10:31;;;;;;;9.97;7.90;;;;;;;13.67;69.83;100344.81;5084492;28;20215;-71
2022/04/26 08:12:59;;;;;;;11.27;8.60;;;;;;;13.76;69.87;100344.63;5088329;28;20203;-71
2022/04/26 08:15:27;;;;;;;10.87;6.40;;;;;;;13.91;69.81;100348.22;5088499;28;20206;-72
2022/04/26 08:17:54;;;;;;;9.77;7.57;;;;;;;14.19;68.83;100347.78;5089187;28;20252;-71
2022/04/26 08:20:24;;;;;;;8.37;6.67;;;;;;;14.39;66.87;100351.72;5088230;28;20806;-69
2022/04/26 08:22:53;;;;;;;7.10;5.63;;;;;;;14.58;66.45;100356.59;5089158;28;20204;-69
2022/04/26 08:28:07;;;;;;;7.10;5.63;;;;;;;14.88;65.63;100354.88;5086385;28;20396;-70
2022/04/26 08:30:35;;;;;;;6.97;5.57;;;;;;;15.06;64.69;100365.25;5085451;28;20570;-70
2022/04/26 08:33:02;;;;;;;9.23;5.57;;;;;;;15.08;64.63;100368.56;5083875;28;23182;-67
2022/04/26 08:35:31;;;;;;;6.93;5.47;;;;;;;15.16;64.03;100375.69;5088200;28;20709;-66
2022/04/26 08:38:20;;;;;;;6.13;4.77;;;;;;;15.33;64.09;100372.69;5088626;28;20210;-67
2022/04/26 08:40:48;;;;;;;6.00;4.07;;;;;;;15.48;63.58;100379.91;5088451;28;20270;-65
2022/04/26 08:43:16;;;;;;;7.83;4.70;;;;;;;15.64;62.74;100387.81;5084405;28;20207;-65
2022/04/26 08:45:47;;;;;;;5.23;4.23;;;;;;;15.72;63.50;100388.53;5088463;28;20322;-65
2022/04/26 08:51:08;;;;;;;5.83;4.50;;;;;;;15.68;61.94;100387.25;5087287;28;20233;-65
2022/04/26 08:53:38;;;;;;;5.33;3.60;;;;;;;15.55;62.42;100397.75;5088118;28;20663;-66
2022/04/26 08:56:07;;;;;;;4.50;3.30;;;;;;;15.49;62.40;100387.72;5087243;28;20222;-65
2022/04/26 08:58:36;;;;;;;12.37;4.90;;;;;;;15.61;62.20;100393.50;5080388;28;20198;-65
2022/04/26 09:01:09;;;;;;;5.80;3.97;;;;;;;15.63;62.42;100404.84;5089649;28;20206;-65
2022/04/26 09:03:39;;;;;;;6.00;4.30;;;;;;;15.45;62.66;100399.81;5088627;28;20294;-64
2022/04/26 09:06:09;;;;;;;5.60;4.10;;;;;;;15.35;63.45;100399.22;5084923;28;20222;-68
2022/04/26 09:08:38;;;;;;;5.63;4.30;;;;;;;15.34;63.15;100401.06;5088239;28;20202;-69
2022/04/26 09:11:22;;;;;;;5.50;4.00;;;;;;;15.48;62.60;100395.94;5087274;28;20728;-68
2022/04/26 09:13:50;;;;;;;5.37;4.37;;;;;;;15.57;62.05;100394.91;5089844;28;20226;-67
2022/04/26 09:16:21;;;;;;;6.50;4.10;;;;;;;15.61;62.40;100399.69;5085163;28;20209;-68
2022/04/26 09:18:54;;;;;;;7.00;5.07;;;;;;;15.72;61.74;100395.75;5083144;28;20253;-70
2022/04/26 09:21:26;;;;;;;6.93;5.23;;;;;;;15.82;61.69;100400.81;5087086;28;20268;-68
2022/04/26 09:23:57;;;;;;;6.37;4.90;;;;;;;15.74;60.29;100401.72;5088442;28;20555;-69
2022/04/26 09:26:26;;;;;;;7.60;5.20;;;;;;;15.67;60.03;100400.78;5087915;28;20237;-69
2022/04/26 09:28:58;;;;;;;6.00;4.43;;;;;;;15.69;61.06;100404.09;5087687;28;20203;-69
2022/04/26 09:31:27;;;;;;;6.27;4.70;;;;;;;15.57;60.32;100405.59;5086954;28;20317;-69
2022/04/26 09:33:57;;;;;;;7.23;4.27;;;;;;;15.38;61.48;100407.72;5089744;28;20210;-69
2022/04/26 09:36:28;;;;;;;7.03;5.10;;;;;;;15.31;61.99;100409.44;5087557;28;20246;-67
2022/04/26 09:38:59;;;;;;;6.87;4.70;;;;;;;15.39;62.85;100420.03;5088421;28;20641;-69
2022/04/26 09:41:28;;;;;;;5.50;4.27;;;;;;;15.41;61.71;100418.03;5087096;28;20212;-70
2022/04/26 09:43:57;;;;;;;5.90;4.47;;;;;;;15.41;62.42;100420.69;5088309;28;20205;-68
2022/04/26 09:46:25;;;;;;;5.33;4.20;;;;;;;15.47;61.59;100426.34;5080985;28;20403;-70
2022/04/26 09:48:54;;;;;;;5.27;4.37;;;;;;;15.45;60.70;100429.19;5086213;28;20198;-68
2022/04/26 09:51:22;;;;;;;6.47;4.27;;;;;;;15.43;60.79;100432.03;5084447;28;20621;-70
2022/04/26 09:53:50;;;;;;;9.23;5.10;;;;;;;15.36;60.55;100435.63;5081939;28;20230;-68
2022/04/26 09:56:21;;;;;;;6.97;4.50;;;;;;;15.27;60.60;100440.19;5083205;28;20238;-71
2022/04/26 09:58:50;;;;;;;6.90;4.47;;;;;;;15.19;60.58;100444.78;5083722;28;20679;-72
2022/04/26 10:01:19;;;;;;;7.13;4.80;;;;;;;15.12;61.47;100441.16;5086573;28;20249;-68
2022/04/26 10:03:51;;;;;;;7.03;4.40;;;;;;;15.10;62.92;100446.69;5089517;28;20210;-71
2022/04/26 10:06:22;;;;;;;5.37;3.97;;;;;;;15.14;62.08;100457.81;5090060;28;20580;-72
2022/04/26 10:08:51;;;;;;;5.73;4.27;;;;;;;15.09;61.74;100454.88;5092213;28;20199;-72
2022/04/26 10:11:20;;;;;;;7.53;4.50;;;;;;;15.11;62.10;100456.34;5089705;28;20227;-72
2022/04/26 10:13:49;;;;;;;6.10;3.27;;;;;;;15.11;62.36;100453.69;5091165;28;20233;-72
2022/04/26 10:16:21;;;;;;;6.87;4.30;;;;;;;15.09;62.09;100450.34;5090346;28;20630;-70
2022/04/26 10:18:50;;;;;;;4.73;3.70;;;;;;;15.01;62.47;100459.25;5090215;28;20717;-72
2022/04/26 10:21:49;;;;;;;5.17;3.80;;;;;;;14.92;62.85;100457.66;5088150;28;20293;-70
2022/04/26 10:24:19;;;;;;;5.43;2.43;;;;;;;14.81;62.72;100465.22;5087055;28;20501;-71
2022/04/26 10:26:49;;;;;;;5.10;2.10;;;;;;;14.69;61.87;100470.94;5089222;28;20214;-71
2022/04/26 10:29:23;;;;;;;4.20;2.20;;;;;;;14.57;62.41;100472.34;5088451;28;20218;-71
2022/04/26 10:31:58;;;;;;;3.10;2.07;;;;;;;14.51;62.18;100482.88;5089787;28;20206;-71
2022/04/26 10:34:30;;;;;;;1.93;1.30;;;;;;;14.48;62.06;100475.22;5089018;28;20211;-72
2022/04/26 10:37:00;;;;;;;2.63;1.60;;;;;;;14.48;61.41;100468.06;5086835;28;20203;-72
2022/04/26 10:39:31;;;;;;;2.33;1.47;;;;;;;14.52;61.18;100472.03;5084626;28;20250;-71
2022/04/26 10:42:02;;;;;;;2.97;1.40;;;;;;;14.57;61.10;100469.69;5090780;28;20206;-68
2022/04/26 10:44:33;;;;;;;2.70;1.87;;;;;;;14.59;61.56;100481.03;5088653;28;20234;-72
2022/04/26 10:47:26;;;;;;;2.53;1.63;;;;;;;14.64;60.49;100488.50;5086310;28;20206;-71
2022/04/26 10:49:55;;;;;;;3.50;1.80;;;;;;;14.60;60.22;100485.31;5088870;28;20218;-70
2022/04/26 10:52:44;;;;;;;2.93;1.43;;;;;;;14.61;60.73;100486.16;5087100;28;20297;-71
2022/04/26 10:55:14;;;;;;;7.60;3.00;;;;;;;14.60;61.32;100481.84;5087761;28;20232;-69
2022/04/26 10:57:46;;;;;;;4.37;2.30;;;;;;;14.59;60.17;100485.53;5090256;28;20237;-68
2022/04/26 11:00:16;;;;;;;5.87;2.90;;;;;;;14.60;60.10;100497.88;5083189;28;20205;-69
2022/04/26 11:02:46;;;;;;;3.40;2.23;;;;;;;14.68;60.46;100493.31;5088411;28;20244;-70
2022/04/26 11:05:21;;;;;;;4.77;3.00;;;;;;;14.77;59.37;100490.63;5085445;28;20241;-69
2022/04/26 11:07:49;;;;;;;3.13;2.10;;;;;;;14.96;58.29;100490.97;5087883;28;20240;-69
2022/04/26 11:10:20;;;;;;;3.00;1.60;;;;;;;15.39;58.43;100494.84;5088358;28;20643;-70
2022/04/26 11:12:50;;;;;;;2.13;1.30;;;;;;;15.74;55.77;100493.44;5089795;28;20228;-70
2022/04/26 11:15:20;;;;;;;2.70;1.50;;;;;;;15.97;55.54;100500.59;5089408;28;20234;-70
2022/04/26 11:17:50;;;;;;;2.13;1.33;;;;;;;16.53;53.99;100501.81;5089491;28;20209;-68
2022/04/26 11:20:19;;;;;;;2.23;1.17;;;;;;;16.71;53.26;100504.94;5085183;28;20206;-71
2022/04/26 11:22:48;;;;;;;2.27;1.57;;;;;;;16.98;52.97;100508.78;5088193;28;20233;-70
2022/04/26 11:28:12;;;;;;;2.70;2.17;;;;;;;16.72;51.64;100509.28;5086990;28;20207;-72
2022/04/26 11:30:41;;;;;;;3.53;2.43;;;;;;;16.50;52.32;100512.88;5089475;28;20988;-71
2022/04/26 11:33:12;;;;;;;4.53;3.10;;;;;;;16.51;53.07;100509.19;5090090;28;20206;-73
2022/04/26 11:35:41;;;;;;;5.17;2.80;;;;;;;18.01;51.29;100502.97;5088303;28;20203;-73
2022/04/26 11:38:12;;;;;;;4.10;3.03;;;;;;;18.17;49.68;100501.84;5089008;28;20215;-70
2022/04/26 11:40:42;;;;;;;4.53;2.83;;;;;;;17.78;50.05;100505.88;5088319;28;20207;-70
2022/04/26 11:43:13;;;;;;;4.77;2.70;;;;;;;17.29;51.43;100508.50;5089135;28;20203;-71
2022/04/26 11:45:43;;;;;;;3.83;2.97;;;;;;;16.83;52.57;100516.84;5090039;28;20207;-71
2022/04/26 11:48:13;;;;;;;3.80;2.80;;;;;;;16.43;53.49;100525.34;5088947;28;20203;-71
2022/04/26 11:50:42;;;;;;;3.10;2.00;;;;;;;16.17;53.47;100523.13;5088224;28;20302;-71
2022/04/26 11:53:12;;;;;;;2.23;1.50;;;;;;;15.91;53.08;100528.91;5088511;28;20232;-71
2022/04/26 11:55:41;;;;;;;2.83;1.27;;;;;;;15.73;53.11;100536.41;5090841;28;20326;-70
2022/04/26 11:58:16;;;;;;;3.93;1.60;;;;;;;15.51;53.82;100532.69;5090090;28;20242;-72
2022/04/26 12:00:56;;;;;;;4.50;1.63;;;;;;;15.35;54.07;100547.00;5091184;28;20202;-74
2022/04/26 12:03:25;;;;;;;2.77;1.33;;;;;;;15.17;55.19;100549.13;5088402;28;20236;-69
2022/04/26 12:05:55;;;;;;;2.57;0.90;;;;;;;15.04;55.24;100543.50;5089507;28;20230;-72
2022/04/26 12:08:23;;;;;;;2.10;1.10;;;;;;;14.89;55.75;100550.59;5084912;28;20207;-70
2022/04/26 12:10:51;;;;;;;1.70;1.00;;;;;;;14.82;56.08;100549.63;5087354;28;20245;-69
2022/04/26 12:13:32;;;;;;;3.77;1.50;;;;;;;14.66;56.14;100567.38;5085018;28;20199;-70
2022/04/26 12:16:20;;;;;;;1.90;1.10;;;;;;;14.51;56.42;100558.41;5089645;28;20202;-68
2022/04/26 12:18:53;;;;;;;2.67;1.20;;;;;;;14.41;57.09;100568.47;5087700;28;20203;-70
2022/04/26 12:21:22;;;;;;;3.03;1.17;;;;;;;14.35;58.42;100569.09;5085041;28;20922;-71
2022/04/26 12:24:09;;;;;;;2.40;1.40;;;;;;;14.26;59.32;100570.94;5085708;28;20377;-69
2022/04/26 12:26:37;;;;;;;3.53;1.17;;;;;;;14.18;59.39;100567.47;5087075;28;20317;-69
2022/04/26 12:29:12;;;;;;;2.60;1.13;;;;;;;14.16;59.89;100564.16;5081473;28;20216;-67
2022/04/26 12:31:46;;;;;;;2.60;1.20;;;;;;;14.08;59.92;100566.78;5085125;28;20386;-71
2022/04/26 12:34:17;;;;;;;2.50;1.53;;;;;;;14.03;60.24;100567.31;5084903;28;20294;-69
2022/04/26 12:36:52;;;;;;;3.57;1.57;;;;;;;14.04;60.69;100560.16;5087670;28;20217;-68
2022/04/26 12:39:20;;;;;;;2.77;1.60;;;;;;;14.07;61.25;100565.16;5083506;28;20273;-70
2022/04/26 12:41:50;;;;;;;2.93;1.70;;;;;;;14.11;61.66;100563.81;5086409;28;20685;-70
2022/04/26 12:44:20;;;;;;;4.03;2.27;;;;;;;14.12;61.87;100555.63;5082955;28;20357;-71
2022/04/26 12:50:27;;;;;;;3.37;1.80;;;;;;;14.18;61.34;100551.44;5083615;28;20222;-71
2022/04/26 12:52:49;;;;;;;2.87;1.10;;;;;;;14.34;59.05;100551.41;5085796;28;20237;-71
2022/04/26 12:55:25;;;;;;;2.40;1.40;;;;;;;14.43;57.64;100554.94;5086672;28;20249;-70
2022/04/26 12:57:55;;;;;;;2.10;1.40;;;;;;;14.48;57.88;100549.94;5084532;28;20547;-73
2022/04/26 13:00:25;;;;;;;2.83;1.20;;;;;;;14.56;57.92;100555.25;5085617;28;20306;-69
2022/04/26 13:02:56;;;;;;;1.67;1.10;;;;;;;14.67;57.40;100560.22;5088910;28;20300;-68
2022/04/26 13:05:36;;;;;;;2.27;1.07;;;;;;;14.78;56.83;100554.47;5087509;28;20306;-69
2022/04/26 13:08:04;;;;;;;3.40;1.43;;;;;;;14.79;56.81;100555.31;5089277;28;20231;-68
2022/04/26 13:10:32;;;;;;;3.53;1.10;;;;;;;14.80;56.79;100562.31;5085642;28;20306;-68
2022/04/26 13:13:00;;;;;;;2.97;1.37;;;;;;;14.76;56.63;100553.84;5089495;28;20249;-68
2022/04/26 13:15:29;;;;;;;3.97;1.00;;;;;;;14.76;56.73;100558.34;5089942;28;20210;-71
2022/04/26 13:17:57;;;;;;;1.93;1.10;;;;;;;14.76;55.79;100561.84;5089699;28;20198;-70
2022/04/26 13:20:24;;;;;;;1.47;0.80;;;;;;;14.73;55.29;100569.34;5088883;28;20266;-70
2022/04/26 13:22:52;;;;;;;1.57;0.87;;;;;;;14.76;54.77;100569.03;5089434;28;20297;-69
2022/04/26 13:25:20;;;;;;;1.23;0.87;;;;;;;14.71;54.97;100564.19;5087748;28;20213;-69
2022/04/26 13:27:48;;;;;;;2.90;0.80;;;;;;;14.74;56.22;100565.69;5087264;28;20255;-70
2022/04/26 13:30:17;;;;;;;1.47;0.67;;;;;;;14.77;55.49;100570.69;5089227;28;20296;-71
2022/04/26 13:32:47;;;;;;;1.20;0.70;;;;;;;14.79;55.60;100566.00;5089717;28;20236;-70
2022/04/26 13:35:15;;;;;;;1.23;0.70;;;;;;;14.75;55.63;100567.34;5091214;28;20206;-70
2022/04/26 13:37:43;;;;;;;1.47;0.70;;;;;;;14.72;55.27;100573.03;5092877;28;20617;-72
2022/04/26 13:40:11;;;;;;;16.47;12.83;;;;;;;14.75;55.40;100562.00;5094033;28;20214;-73
2022/04/26 13:42:39;;;;;;;2.63;1.50;;;;;;;14.73;55.23;100572.03;5095070;28;20635;-71
2022/04/26 13:45:08;;;;;;;3.57;1.30;;;;;;;14.82;55.45;100565.66;5093150;28;20261;-71
2022/04/26 13:47:36;;;;;;;1.37;0.90;;;;;;;14.84;56.23;100566.31;5094191;28;20280;-72
2022/04/26 13:50:08;;;;;;;1.97;0.90;;;;;;;14.83;55.55;100568.16;5091303;28;20211;-72
2022/04/26 13:52:36;;;;;;;2.37;1.00;;;;;;;14.84;55.75;100569.00;5088988;28;20284;-71
2022/04/26 13:55:04;;;;;;;1.90;1.00;;;;;;;14.88;55.65;100572.97;5092066;28;20304;-72
2022/04/26 13:57:31;;;;;;;2.80;1.20;;;;;;;14.89;56.20;100574.63;5094510;28;20201;-70
2022/04/26 13:59:59;;;;;;;1.37;0.80;;;;;;;14.80;55.83;100578.34;5091751;28;20886;-70
2022/04/26 14:02:27;;;;;;;1.53;0.90;;;;;;;14.83;55.93;100584.16;5094638;28;20262;-68
2022/04/26 14:04:55;;;;;;;2.07;1.03;;;;;;;14.86;56.57;100577.66;5078581;28;20225;-70
2022/04/26 14:07:25;;;;;;;2.10;0.97;;;;;;;14.91;55.91;100577.97;5095337;28;20325;-67
2022/04/26 14:09:52;;;;;;;1.23;0.73;;;;;;;14.87;55.74;100587.31;5095396;28;20202;-68
2022/04/26 14:12:20;;;;;;;3.47;1.47;;;;;;;14.85;55.54;100576.00;5095162;28;20203;-67
2022/04/26 14:23:05;;;;;;;1.80;1.20;;;;;;;14.77;57.11;100584.03;5095987;28;20627;-72
2022/04/26 14:25:33;;;;;;;1.53;1.07;;;;;;;14.73;57.19;100582.69;5090437;28;20646;-69
2022/04/26 14:28:01;;;;;;;2.07;1.23;;;;;;;14.71;57.57;100584.69;5088854;28;20329;-69
2022/04/26 14:30:29;;;;;;;2.33;1.43;;;;;;;14.77;57.53;100584.88;5091912;28;20259;-70
2022/04/26 14:33:13;;;;;;;2.53;1.60;;;;;;;14.78;58.52;100577.66;5095737;28;20605;-70
2022/04/26 14:35:40;;;;;;;4.20;2.03;;;;;;;14.77;59.10;100584.03;5092905;28;20356;-70
2022/04/26 14:38:10;;;;;;;4.47;2.17;;;;;;;14.80;59.55;100589.00;5093852;28;20552;-70
2022/04/26 14:40:38;;;;;;;3.87;2.63;;;;;;;14.73;59.79;100593.38;5090926;28;20203;-71
2022/04/26 14:43:09;;;;;;;4.17;2.17;;;;;;;14.67;60.62;100603.75;5093840;28;20286;-72
2022/04/26 14:45:44;;;;;;;4.13;2.30;;;;;;;14.57;61.83;100611.13;5091914;28;21651;-71
2022/04/26 14:48:14;;;;;;;3.87;2.20;;;;;;;14.51;62.48;100606.44;5087209;28;20217;-71
2022/04/26 14:50:46;;;;;;;2.27;1.60;;;;;;;14.43;61.80;100614.47;5087450;28;20274;-70
2022/04/26 14:53:15;;;;;;;4.47;2.30;;;;;;;14.43;61.80;100614.47;5085416;28;20219;-71
2022/04/26 14:56:04;;;;;;;3.03;2.03;;;;;;;14.36;61.84;100618.78;5083559;28;20241;-71
2022/04/26 14:58:33;;;;;;;4.80;2.07;;;;;;;14.31;62.22;100610.47;5084805;28;20504;-70
2022/04/26 15:01:01;;;;;;;3.97;2.50;;;;;;;14.28;61.68;100616.13;5087664;28;20581;-70
2022/04/26 15:03:30;;;;;;;6.03;2.70;;;;;;;14.29;61.89;100620.47;5087781;28;20773;-71
2022/04/26 15:05:59;;;;;;;4.27;2.33;;;;;;;14.19;62.10;100617.13;5084796;28;20214;-70
2022/04/26 15:11:14;;;;;;;7.97;1.97;;;;;;;14.14;62.19;100617.66;5084429;28;20232;-71
2022/04/26 15:16:38;;;;;;;2.83;1.87;;;;;;;14.10;61.57;100620.81;5085616;28;20224;-70
2022/04/26 15:19:07;;;;;;;4.40;1.80;;;;;;;14.09;61.28;100624.47;5086991;28;20228;-70
2022/04/26 15:21:35;;;;;;;5.77;1.93;;;;;;;14.03;60.99;100623.31;5088583;28;20676;-70
2022/04/26 15:24:05;;;;;;;2.33;1.57;;;;;;;14.01;61.22;100624.47;5089877;28;20203;-70
2022/04/26 15:26:35;;;;;;;2.63;1.60;;;;;;;14.01;61.34;100621.81;5086366;28;20394;-70
2022/04/26 15:29:04;;;;;;;2.47;1.53;;;;;;;13.99;60.67;100626.47;5084944;28;20214;-70
2022/04/26 15:31:35;;;;;;;2.10;1.30;;;;;;;13.95;61.15;100625.97;5086820;28;20247;-70
2022/04/26 15:34:04;;;;;;;2.70;1.30;;;;;;;13.92;61.29;100628.97;5085871;28;20287;-70
2022/04/26 15:36:32;;;;;;;2.80;1.57;;;;;;;13.87;60.95;100631.31;5086817;28;20198;-70
2022/04/26 15:39:00;;;;;;;1.97;1.40;;;;;;;13.89;61.15;100632.81;5088668;28;20212;-70